Time;durP1;ratioP1;P1;durP2;ratioP2;P2;SDS_P1;SDS_P2;PMS_P1;PMS_P2;Temp;Humidity;BMP_temperature;BMP_pressure;BME280_temperature;BME280_humidity;BME280_pressure;Samples;Min_cycle;Max_cycle;Signal;HPM_P1;HPM_P2
2022/07/13 00:00:03;;;;;;;3.20;1.90;;;;;;;19.21;47.00;100540.80;116878;1187;22809;-63
2022/07/13 00:02:30;;;;;;;5.30;2.30;;;;;;;19.18;46.99;100535.40;116932;1186;24308;-63
2022/07/13 00:04:57;;;;;;;4.80;1.90;;;;;;;19.15;47.15;100531.98;116923;1185;22978;-63
2022/07/13 00:07:25;;;;;;;4.80;2.40;;;;;;;19.11;47.12;100534.84;116940;1187;21858;-58
2022/07/13 00:09:52;;;;;;;6.20;1.90;;;;;;;19.07;47.04;100533.74;116901;1182;22932;-63
2022/07/13 00:12:19;;;;;;;5.40;1.90;;;;;;;19.03;46.93;100533.41;116986;1187;21859;-62
2022/07/13 00:14:46;;;;;;;4.30;2.00;;;;;;;18.99;46.97;100525.05;117014;1182;22844;-58
2022/07/13 00:17:13;;;;;;;3.00;1.70;;;;;;;18.96;47.05;100525.17;117232;1185;21899;-58
2022/07/13 00:19:40;;;;;;;3.70;1.60;;;;;;;18.94;47.09;100529.52;117022;1183;22938;-63
2022/07/13 00:22:07;;;;;;;4.50;2.00;;;;;;;18.91;47.19;100525.39;117119;1184;22881;-58
2022/07/13 00:24:34;;;;;;;3.00;1.50;;;;;;;18.87;47.08;100520.73;117009;1187;21864;-64
2022/07/13 00:27:01;;;;;;;4.70;2.00;;;;;;;18.86;46.98;100523.27;117138;1186;24462;-58
2022/07/13 00:29:29;;;;;;;4.90;1.80;;;;;;;18.85;46.95;100517.10;117139;1186;22893;-57
2022/07/13 00:31:56;;;;;;;4.30;1.70;;;;;;;18.84;46.79;100518.02;117094;1183;21996;-62
2022/07/13 00:34:23;;;;;;;3.60;1.90;;;;;;;18.85;46.77;100514.09;117192;1183;23738;-58
2022/07/13 00:36:50;;;;;;;2.90;1.70;;;;;;;18.84;46.68;100514.14;117221;1186;22968;-63
2022/07/13 00:39:17;;;;;;;2.90;1.60;;;;;;;18.83;46.54;100511.68;116942;1186;21871;-57
2022/07/13 00:41:45;;;;;;;5.40;2.00;;;;;;;18.81;46.59;100513.38;116956;1187;21865;-58
2022/07/13 00:44:13;;;;;;;4.00;1.90;;;;;;;18.78;46.56;100508.69;117041;1187;21857;-58
2022/07/13 00:46:43;;;;;;;5.00;2.00;;;;;;;18.76;46.52;100508.08;116909;1187;21866;-57
2022/07/13 00:49:11;;;;;;;5.80;1.90;;;;;;;18.72;46.59;100503.64;116993;1187;21867;-62
2022/07/13 00:51:39;;;;;;;3.50;1.70;;;;;;;18.68;46.55;100499.90;116972;1187;23493;-57
2022/07/13 00:54:06;;;;;;;2.80;1.90;;;;;;;18.65;46.65;100499.31;117074;1186;21893;-58
2022/07/13 00:56:33;;;;;;;4.90;2.70;;;;;;;18.62;46.54;100494.29;116999;1184;23676;-57
2022/07/13 00:59:01;;;;;;;3.80;2.10;;;;;;;18.58;46.43;100494.82;117044;1187;22323;-62
2022/07/13 01:01:28;;;;;;;4.40;2.00;;;;;;;18.56;46.47;100493.33;116962;1187;21855;-63
2022/07/13 01:03:55;;;;;;;4.30;1.90;;;;;;;18.51;46.34;100492.84;116926;1184;21902;-58
2022/07/13 01:06:22;;;;;;;3.90;2.00;;;;;;;18.47;46.29;100490.36;116895;1187;21854;-58
2022/07/13 01:08:49;;;;;;;6.20;2.30;;;;;;;18.41;46.35;100490.94;117062;1186;23451;-62
2022/07/13 01:11:16;;;;;;;4.20;1.60;;;;;;;18.38;46.30;100489.66;116982;1184;23596;-58
2022/07/13 01:13:44;;;;;;;8.80;2.10;;;;;;;18.33;46.33;100487.56;117131;1186;21858;-58
2022/07/13 01:16:11;;;;;;;4.30;1.90;;;;;;;18.30;46.33;100485.90;117019;1187;23592;-62
2022/07/13 01:18:38;;;;;;;6.20;2.00;;;;;;;18.29;46.49;100485.42;116981;1183;24144;-57
2022/07/13 01:21:05;;;;;;;5.50;2.00;;;;;;;18.24;46.29;100482.08;117166;1186;23871;-62
2022/07/13 01:23:33;;;;;;;4.50;2.10;;;;;;;18.21;46.36;100482.91;117029;1182;22884;-58
2022/07/13 01:26:01;;;;;;;5.70;2.00;;;;;;;18.18;46.31;100477.18;116943;1184;22621;-58
2022/07/13 01:28:29;;;;;;;4.80;2.20;;;;;;;18.16;46.29;100476.20;117132;1186;22926;-63
2022/07/13 01:30:56;;;;;;;3.60;2.20;;;;;;;18.13;46.30;100476.33;117056;1186;21859;-62
2022/07/13 01:33:23;;;;;;;2.80;1.60;;;;;;;18.11;46.19;100473.75;117221;1186;22707;-58
2022/07/13 01:35:51;;;;;;;6.80;2.20;;;;;;;18.08;46.31;100470.88;116912;1186;22784;-62
2022/07/13 01:38:18;;;;;;;4.10;1.80;;;;;;;18.05;46.27;100465.46;117040;1186;21858;-57
2022/07/13 01:40:45;;;;;;;6.10;1.70;;;;;;;18.04;46.22;100463.92;116994;1186;23489;-57
2022/07/13 01:43:12;;;;;;;5.60;1.90;;;;;;;18.03;46.13;100459.50;117042;1186;24146;-57
2022/07/13 01:45:39;;;;;;;6.00;1.80;;;;;;;18.03;46.11;100456.86;117268;1185;23635;-57
2022/07/13 01:48:07;;;;;;;7.60;2.10;;;;;;;18.04;46.07;100457.20;117003;1186;21869;-62
2022/07/13 01:50:34;;;;;;;7.80;1.70;;;;;;;18.03;46.01;100455.07;116981;1184;22935;-57
2022/07/13 01:53:01;;;;;;;5.00;2.00;;;;;;;18.04;45.98;100452.55;117092;1184;23479;-57
2022/07/13 01:55:28;;;;;;;3.90;2.10;;;;;;;18.05;46.01;100453.06;117272;1184;21854;-62
2022/07/13 01:57:58;;;;;;;4.50;2.20;;;;;;;18.03;45.90;100454.54;117123;1186;22922;-62
2022/07/13 02:00:25;;;;;;;4.90;1.70;;;;;;;17.99;45.97;100451.70;117098;1187;21856;-57
2022/07/13 02:02:53;;;;;;;5.00;1.80;;;;;;;17.96;46.00;100450.18;116980;1184;21896;-57
2022/07/13 02:05:21;;;;;;;4.30;1.90;;;;;;;17.90;45.94;100451.66;116990;1186;23440;-62
2022/07/13 02:07:48;;;;;;;4.50;1.90;;;;;;;17.85;46.02;100459.69;116962;1186;21862;-62
2022/07/13 02:10:15;;;;;;;3.20;1.80;;;;;;;17.83;46.02;100456.04;117012;1185;22322;-62
2022/07/13 02:12:43;;;;;;;3.80;1.60;;;;;;;17.81;45.99;100458.77;117113;1185;22860;-62
2022/07/13 02:15:10;;;;;;;10.90;2.00;;;;;;;17.81;46.07;100458.27;117257;1184;22922;-57
2022/07/13 02:17:38;;;;;;;5.50;2.00;;;;;;;17.78;46.01;100456.45;117006;1187;21858;-61
2022/07/13 02:20:07;;;;;;;3.20;1.50;;;;;;;17.75;46.13;100455.48;117064;1188;21972;-62
2022/07/13 02:22:45;;;;;;;2.40;1.60;;;;;;;17.70;46.01;100454.27;117194;1181;22951;-62
2022/07/13 02:25:13;;;;;;;5.80;2.00;;;;;;;17.63;46.03;100451.36;117167;1186;23439;-57
2022/07/13 02:27:43;;;;;;;5.80;1.70;;;;;;;17.59;46.09;100455.27;116975;1187;22849;-58
2022/07/13 02:30:14;;;;;;;3.90;1.80;;;;;;;17.54;46.03;100451.02;117298;1183;21857;-62
2022/07/13 02:32:43;;;;;;;4.60;1.60;;;;;;;17.50;46.15;100450.48;117251;1181;22658;-57
2022/07/13 02:35:10;;;;;;;7.20;1.90;;;;;;;17.45;46.23;100445.15;117060;1184;23000;-57
2022/07/13 02:37:37;;;;;;;4.60;2.00;;;;;;;17.41;46.24;100444.45;117011;1182;22075;-57
2022/07/13 02:40:05;;;;;;;9.30;1.90;;;;;;;17.42;46.44;100442.08;117309;1182;21861;-57
2022/07/13 02:42:32;;;;;;;6.00;2.00;;;;;;;17.47;46.39;100445.61;116961;1186;22945;-61
2022/07/13 02:45:00;;;;;;;7.50;2.10;;;;;;;17.52;46.28;100445.42;116970;1183;22929;-62
2022/07/13 02:47:27;;;;;;;9.30;2.50;;;;;;;17.60;46.29;100445.11;117032;1187;21864;-57
2022/07/13 02:49:54;;;;;;;18.00;3.60;;;;;;;17.65;46.20;100442.95;117148;1182;22721;-57
2022/07/13 02:52:22;;;;;;;16.00;2.40;;;;;;;17.69;46.21;100445.23;116933;1187;21877;-62
2022/07/13 02:54:49;;;;;;;8.50;3.40;;;;;;;17.73;46.06;100445.27;117044;1183;22013;-57
2022/07/13 02:57:16;;;;;;;10.00;2.30;;;;;;;17.78;46.18;100445.61;117117;1184;21902;-58
2022/07/13 02:59:43;;;;;;;9.10;2.50;;;;;;;17.83;46.02;100446.83;117111;1184;22648;-63
2022/07/13 03:02:11;;;;;;;7.30;2.70;;;;;;;17.84;46.04;100445.34;117316;1185;22615;-62
2022/07/13 03:04:38;;;;;;;14.40;2.70;;;;;;;17.86;45.94;100444.06;116893;1187;21919;-63
2022/07/13 03:07:05;;;;;;;7.00;2.80;;;;;;;17.87;45.99;100442.59;117250;1184;24296;-63
2022/07/13 03:09:32;;;;;;;8.80;2.50;;;;;;;17.89;46.02;100442.65;117225;1184;22608;-58
2022/07/13 03:12:00;;;;;;;10.80;2.60;;;;;;;17.92;45.98;100440.07;116983;1184;21852;-63
2022/07/13 03:14:28;;;;;;;5.60;1.90;;;;;;;17.93;45.98;100441.96;117180;1186;23021;-63
2022/07/13 03:16:55;;;;;;;12.50;2.60;;;;;;;17.95;46.06;100442.39;117125;1181;22946;-58
2022/07/13 03:19:22;;;;;;;13.60;3.00;;;;;;;17.99;46.11;100444.40;117201;1186;23634;-63
2022/07/13 03:21:49;;;;;;;13.20;2.20;;;;;;;18.05;46.10;100446.12;116978;1185;22008;-58
2022/07/13 03:24:16;;;;;;;10.00;2.10;;;;;;;18.11;46.09;100445.66;117034;1185;22013;-62
2022/07/13 03:26:44;;;;;;;16.70;2.50;;;;;;;18.18;46.17;100443.10;116940;1187;21913;-57
2022/07/13 03:29:11;;;;;;;9.00;2.00;;;;;;;18.24;46.22;100441.92;117208;1186;21899;-62
2022/07/13 03:31:38;;;;;;;8.70;2.60;;;;;;;18.26;46.19;100438.46;116937;1186;23556;-58
2022/07/13 03:34:05;;;;;;;6.10;1.90;;;;;;;18.32;46.05;100436.79;117212;1182;21973;-63
2022/07/13 03:36:32;;;;;;;9.80;3.20;;;;;;;18.39;45.92;100431.35;116977;1185;21854;-62
2022/07/13 03:39:00;;;;;;;11.90;2.10;;;;;;;18.42;45.93;100432.61;117015;1184;21858;-62
2022/07/13 03:41:28;;;;;;;9.00;2.30;;;;;;;18.48;45.94;100430.05;117077;1184;22633;-58
2022/07/13 03:43:55;;;;;;;10.70;2.80;;;;;;;18.59;46.02;100430.08;116969;1187;22633;-63
2022/07/13 03:46:22;;;;;;;8.30;2.30;;;;;;;18.72;46.08;100430.42;117087;1184;21863;-58
2022/07/13 03:48:50;;;;;;;11.40;2.40;;;;;;;18.84;45.90;100430.95;117058;1187;21859;-63
2022/07/13 03:51:17;;;;;;;9.10;2.10;;;;;;;18.94;45.83;100425.86;117030;1185;22946;-58
2022/07/13 03:53:44;;;;;;;9.80;2.40;;;;;;;19.01;45.78;100423.94;117000;1185;21844;-63
2022/07/13 03:56:12;;;;;;;16.10;3.00;;;;;;;19.10;45.65;100422.46;117108;1186;21864;-63
2022/07/13 03:58:39;;;;;;;10.70;2.80;;;;;;;19.19;45.56;100422.61;117175;1185;22873;-58
2022/07/13 04:01:06;;;;;;;23.50;4.20;;;;;;;19.29;45.51;100425.49;117055;1184;21857;-62
2022/07/13 04:03:33;;;;;;;28.10;3.50;;;;;;;19.38;45.25;100423.83;117181;1185;21889;-62
2022/07/13 04:06:00;;;;;;;12.20;2.50;;;;;;;19.47;45.31;100423.89;117109;1186;21855;-58
2022/07/13 04:08:28;;;;;;;11.20;2.20;;;;;;;19.57;45.13;100423.98;116966;1187;21857;-58
2022/07/13 04:10:55;;;;;;;8.60;1.70;;;;;;;19.67;44.92;100422.39;117044;1185;21859;-63
2022/07/13 04:13:22;;;;;;;10.00;2.60;;;;;;;19.77;44.74;100422.11;116985;1187;22421;-58
2022/07/13 04:15:49;;;;;;;4.70;1.80;;;;;;;19.87;44.73;100422.34;117272;1185;23722;-62
2022/07/13 04:18:16;;;;;;;4.20;1.90;;;;;;;19.98;44.59;100423.56;117062;1186;22635;-58
2022/07/13 04:20:43;;;;;;;8.50;1.80;;;;;;;20.13;44.06;100427.25;117030;1186;21864;-58
2022/07/13 04:23:11;;;;;;;51.70;5.10;;;;;;;20.25;43.79;100424.88;116850;1184;22734;-58
2022/07/13 04:25:39;;;;;;;12.60;3.90;;;;;;;20.37;43.76;100429.42;116911;1185;21867;-57
2022/07/13 04:28:06;;;;;;;11.40;2.20;;;;;;;20.49;43.26;100423.46;117082;1187;21897;-63
2022/07/13 04:30:34;;;;;;;8.90;1.90;;;;;;;20.61;43.22;100420.66;116965;1180;22315;-63
2022/07/13 04:33:02;;;;;;;5.70;1.60;;;;;;;20.76;43.05;100419.53;119135;1184;22266;-59
2022/07/13 04:35:30;;;;;;;11.40;2.50;;;;;;;20.90;43.00;100420.17;117936;1183;22645;-59
2022/07/13 04:37:57;;;;;;;10.20;1.90;;;;;;;21.09;42.73;100421.45;117023;1186;23855;-58
2022/07/13 04:40:24;;;;;;;6.10;1.30;;;;;;;21.24;42.34;100419.38;116910;1183;21857;-59
2022/07/13 04:42:52;;;;;;;5.90;1.80;;;;;;;21.39;42.16;100417.29;117228;1186;22814;-58
2022/07/13 04:45:19;;;;;;;4.90;1.40;;;;;;;21.55;42.03;100410.90;117078;1186;21864;-62
2022/07/13 04:47:46;;;;;;;6.20;1.60;;;;;;;21.68;41.80;100409.45;117257;1185;21940;-61
2022/07/13 04:50:13;;;;;;;4.50;1.40;;;;;;;21.84;41.80;100407.98;117241;1184;21857;-63
2022/07/13 04:52:40;;;;;;;3.30;1.50;;;;;;;21.99;41.44;100403.33;116983;1187;21855;-58
2022/07/13 04:55:09;;;;;;;11.10;1.60;;;;;;;22.11;41.23;100402.61;116963;1187;21851;-58
2022/07/13 04:57:36;;;;;;;9.90;2.20;;;;;;;22.23;41.07;100399.20;117388;1185;21899;-63
2022/07/13 05:00:06;;;;;;;2.40;1.20;;;;;;;22.38;40.70;100395.11;117384;1185;21863;-63
2022/07/13 05:02:33;;;;;;;26.10;2.80;;;;;;;22.52;40.62;100396.44;117171;1184;21852;-63
2022/07/13 05:05:00;;;;;;;5.40;1.50;;;;;;;22.63;40.33;100394.83;117252;1185;21860;-59
2022/07/13 05:07:28;;;;;;;8.10;1.30;;;;;;;22.74;39.91;100396.69;117063;1187;22321;-58
2022/07/13 05:09:57;;;;;;;6.00;1.60;;;;;;;22.83;39.94;100398.21;117006;1184;23477;-59
2022/07/13 05:12:24;;;;;;;5.70;1.30;;;;;;;22.96;39.50;100394.95;117332;1186;21898;-58
2022/07/13 05:14:51;;;;;;;5.40;1.60;;;;;;;23.07;39.27;100392.78;117010;1187;21859;-59
2022/07/13 05:17:19;;;;;;;3.90;1.50;;;;;;;23.22;39.39;100391.64;116941;1187;21865;-58
2022/07/13 05:19:46;;;;;;;6.70;1.60;;;;;;;23.43;39.09;100387.95;117136;1184;21855;-59
2022/07/13 05:22:15;;;;;;;6.90;1.70;;;;;;;23.58;38.75;100388.42;117323;1186;21966;-58
2022/07/13 05:24:43;;;;;;;8.40;2.20;;;;;;;23.71;38.72;100385.92;117315;1186;23461;-58
2022/07/13 05:27:11;;;;;;;3.50;1.70;;;;;;;23.88;38.26;100384.30;116958;1185;23554;-63
2022/07/13 05:29:38;;;;;;;6.10;1.70;;;;;;;24.12;38.22;100386.23;117012;1184;23643;-63
2022/07/13 05:32:06;;;;;;;5.50;2.50;;;;;;;24.25;37.93;100386.59;117008;1186;21852;-59
2022/07/13 05:34:34;;;;;;;14.80;4.70;;;;;;;24.39;37.84;100385.08;116907;1185;22075;-63
2022/07/13 05:37:01;;;;;;;9.10;6.40;;;;;;;24.56;37.89;100384.80;117161;1186;23553;-64
2022/07/13 05:39:29;;;;;;;8.20;5.80;;;;;;;24.73;37.71;100387.55;117006;1186;21864;-59
2022/07/13 05:41:56;;;;;;;8.10;3.00;;;;;;;24.89;37.12;100381.44;117175;1186;21857;-59
2022/07/13 05:44:23;;;;;;;9.80;3.70;;;;;;;25.07;37.10;100379.27;116885;1184;21859;-59
2022/07/13 05:46:51;;;;;;;3.80;1.70;;;;;;;25.22;36.48;100379.94;116983;1187;22625;-60
2022/07/13 05:49:19;;;;;;;8.70;3.20;;;;;;;25.33;36.23;100383.45;117049;1186;21857;-59
2022/07/13 05:51:46;;;;;;;5.40;1.80;;;;;;;25.50;36.43;100380.77;117117;1186;21857;-60
2022/07/13 05:54:13;;;;;;;8.10;2.20;;;;;;;25.72;36.04;100378.35;116969;1185;22932;-60
2022/07/13 05:57:01;;;;;;;5.70;1.60;;;;;;;25.94;35.77;100375.42;117256;1181;22297;-64
2022/07/13 05:59:28;;;;;;;5.20;2.10;;;;;;;26.13;35.87;100373.81;117008;1187;22955;-64
2022/07/13 06:01:56;;;;;;;6.60;2.40;;;;;;;26.32;35.56;100373.63;117034;1186;22969;-64
2022/07/13 06:04:24;;;;;;;6.00;1.80;;;;;;;26.52;34.72;100372.95;116988;1187;21862;-64
2022/07/13 06:06:51;;;;;;;26.20;2.80;;;;;;;26.68;34.61;100379.46;117437;1180;22625;-65
2022/07/13 06:09:19;;;;;;;7.50;2.90;;;;;;;26.75;34.78;100379.45;116982;1187;22654;-64
2022/07/13 06:11:46;;;;;;;5.90;1.90;;;;;;;26.76;34.55;100380.21;117029;1186;22955;-60
2022/07/13 06:14:14;;;;;;;3.30;1.70;;;;;;;26.81;34.34;100378.38;116997;1184;24175;-60
2022/07/13 06:16:42;;;;;;;4.00;1.60;;;;;;;26.93;34.59;100374.72;117042;1182;22753;-59
2022/07/13 06:19:09;;;;;;;8.40;2.10;;;;;;;27.10;34.19;100372.48;117362;1182;23476;-60
2022/07/13 06:21:36;;;;;;;5.10;1.70;;;;;;;27.22;33.53;100372.20;117068;1185;22809;-60
2022/07/13 06:24:04;;;;;;;5.20;2.00;;;;;;;27.35;33.66;100374.42;117131;1186;22645;-64
2022/07/13 06:26:31;;;;;;;7.30;2.20;;;;;;;27.48;33.74;100374.80;117259;1185;21891;-60
2022/07/13 06:28:58;;;;;;;3.90;1.20;;;;;;;27.61;33.26;100374.09;117027;1185;22810;-64
2022/07/13 06:31:25;;;;;;;3.40;1.10;;;;;;;27.73;33.31;100375.77;116999;1185;21856;-64
2022/07/13 06:33:52;;;;;;;7.70;1.40;;;;;;;27.88;32.78;100374.62;116984;1181;23637;-64
2022/07/13 06:36:20;;;;;;;31.20;4.20;;;;;;;28.06;32.15;100378.33;117215;1186;21858;-64
2022/07/13 06:38:47;;;;;;;9.40;1.30;;;;;;;28.05;31.96;100375.02;117057;1186;23655;-64
2022/07/13 06:41:14;;;;;;;7.50;1.30;;;;;;;27.99;32.12;100371.96;117030;1183;22103;-60
2022/07/13 06:43:41;;;;;;;4.30;0.80;;;;;;;28.01;31.54;100370.84;117228;1184;21945;-60
2022/07/13 06:46:08;;;;;;;4.40;1.10;;;;;;;28.02;31.61;100370.02;117283;1180;23648;-60
2022/07/13 06:48:36;;;;;;;5.50;1.10;;;;;;;28.10;31.79;100367.92;118237;1186;23475;-60
2022/07/13 06:51:03;;;;;;;4.50;0.80;;;;;;;28.30;31.25;100367.64;117303;1185;21848;-60
2022/07/13 06:53:31;;;;;;;3.40;0.80;;;;;;;28.45;31.02;100368.17;116936;1184;22322;-60
2022/07/13 06:55:58;;;;;;;4.70;0.90;;;;;;;28.56;31.04;100373.67;117104;1185;22104;-65
2022/07/13 06:58:26;;;;;;;2.30;1.00;;;;;;;28.55;30.94;100372.34;116999;1186;23048;-60
2022/07/13 07:00:54;;;;;;;1.80;0.80;;;;;;;28.64;30.95;100368.73;117344;1187;23002;-60
2022/07/13 07:03:23;;;;;;;3.00;1.10;;;;;;;28.69;30.16;100370.76;117128;1184;21855;-60
2022/07/13 07:05:51;;;;;;;0.90;0.50;;;;;;;28.74;30.22;100374.67;117100;1182;23467;-60
2022/07/13 07:08:19;;;;;;;3.10;0.70;;;;;;;28.71;30.01;100370.77;116993;1186;21855;-59
2022/07/13 07:10:47;;;;;;;5.40;1.00;;;;;;;28.70;29.97;100371.04;117415;1184;24236;-60
2022/07/13 07:13:14;;;;;;;2.80;0.70;;;;;;;28.77;29.71;100365.89;117095;1184;21861;-59
2022/07/13 07:15:41;;;;;;;4.80;0.70;;;;;;;28.83;29.76;100364.83;117042;1186;21859;-63
2022/07/13 07:18:12;;;;;;;3.00;0.70;;;;;;;28.93;29.40;100366.14;117317;1182;21896;-64
2022/07/13 07:20:42;;;;;;;2.90;1.00;;;;;;;29.11;29.39;100363.44;117009;1181;21859;-60
2022/07/13 07:23:10;;;;;;;4.30;0.80;;;;;;;29.31;29.73;100363.27;117024;1184;23614;-59
2022/07/13 07:25:37;;;;;;;2.60;0.70;;;;;;;29.39;28.62;100360.90;117258;1184;23663;-59
2022/07/13 07:28:04;;;;;;;3.20;0.90;;;;;;;29.36;28.70;100361.30;117429;1182;22921;-59
2022/07/13 07:30:32;;;;;;;2.40;0.80;;;;;;;29.41;28.60;100353.86;117032;1187;23565;-64
2022/07/13 07:32:59;;;;;;;21.20;3.00;;;;;;;29.49;28.39;100352.80;117303;1186;21977;-59
2022/07/13 07:35:29;;;;;;;4.60;1.00;;;;;;;29.62;27.94;100350.48;116923;1187;21878;-59
2022/07/13 07:37:57;;;;;;;3.50;0.90;;;;;;;29.65;28.19;100356.52;116851;1187;24171;-64
2022/07/13 07:40:24;;;;;;;2.50;0.60;;;;;;;29.63;28.12;100357.11;116940;1187;21923;-64
2022/07/13 07:42:52;;;;;;;24.80;3.00;;;;;;;29.72;28.48;100359.09;116990;1187;23626;-64
2022/07/13 07:45:20;;;;;;;2.50;0.70;;;;;;;29.87;28.32;100356.13;117255;1186;22927;-64
2022/07/13 07:47:47;;;;;;;4.70;0.80;;;;;;;29.95;27.55;100356.98;117117;1187;22702;-64
2022/07/13 07:50:15;;;;;;;2.70;1.20;;;;;;;30.06;27.81;100351.27;116997;1187;21848;-64
2022/07/13 07:52:43;;;;;;;4.20;0.70;;;;;;;30.13;27.34;100350.61;117250;1183;21864;-60
2022/07/13 07:55:30;;;;;;;3.10;0.60;;;;;;;30.08;26.64;100347.79;116906;1186;22999;-64
2022/07/13 07:57:58;;;;;;;3.10;0.60;;;;;;;30.11;27.31;100348.14;117072;1186;22926;-64
2022/07/13 08:00:26;;;;;;;1.60;1.10;;;;;;;30.21;26.82;100346.56;117025;1187;21868;-60
2022/07/13 08:02:57;;;;;;;24.00;2.20;;;;;;;30.27;26.49;100342.23;116901;1189;21846;-64
2022/07/13 08:05:26;;;;;;;6.90;1.10;;;;;;;30.35;26.43;100339.63;117058;1187;22630;-59
2022/07/13 08:07:52;;;;;;;6.90;1.00;;;;;;;30.46;26.31;100342.01;117142;1184;21882;-65
2022/07/13 08:10:20;;;;;;;6.20;0.90;;;;;;;30.48;25.52;100339.64;117019;1187;23015;-64
2022/07/13 08:12:55;;;;;;;2.80;0.60;;;;;;;30.53;25.76;100337.86;117046;1187;21944;-64
2022/07/13 08:15:27;;;;;;;6.00;1.10;;;;;;;30.64;25.64;100335.02;117275;1182;23475;-60
2022/07/13 08:17:58;;;;;;;7.90;0.90;;;;;;;30.67;25.22;100333.14;117244;1185;21912;-60
2022/07/13 08:20:25;;;;;;;5.50;0.80;;;;;;;30.59;25.76;100330.11;117105;1186;21881;-65
2022/07/13 08:22:53;;;;;;;2.50;0.80;;;;;;;30.76;25.93;100327.05;117108;1186;21871;-64
2022/07/13 08:25:23;;;;;;;4.60;0.90;;;;;;;31.09;26.07;100317.94;117221;1185;21865;-65
2022/07/13 08:27:50;;;;;;;3.40;0.70;;;;;;;31.37;25.74;100317.40;117180;1184;23554;-65
2022/07/13 08:30:19;;;;;;;4.40;1.00;;;;;;;31.50;25.39;100317.66;116957;1184;23015;-60
2022/07/13 08:32:49;;;;;;;7.10;1.10;;;;;;;31.60;24.88;100311.61;117124;1186;22947;-60
2022/07/13 08:40:49;;;;;;;1.30;0.40;;;;;;;31.68;23.72;100305.73;117068;1186;22003;-63
2022/07/13 08:43:16;;;;;;;4.20;0.60;;;;;;;31.77;24.01;100306.96;116987;1187;24249;-64
2022/07/13 08:45:43;;;;;;;1.80;0.70;;;;;;;31.91;24.19;100300.81;117041;1186;22323;-64
2022/07/13 08:48:16;;;;;;;4.10;0.60;;;;;;;32.04;22.87;100302.37;116981;1184;22864;-64
2022/07/13 08:50:45;;;;;;;1.90;0.60;;;;;;;32.07;23.98;100306.20;117109;1182;21871;-60
2022/07/13 08:53:14;;;;;;;3.20;0.60;;;;;;;32.16;24.06;100304.32;117196;1184;22158;-60
2022/07/13 08:55:41;;;;;;;2.60;0.50;;;;;;;32.23;23.76;100302.02;117295;1184;22709;-61
2022/07/13 08:58:18;;;;;;;3.90;0.70;;;;;;;32.22;23.61;100297.71;116983;1185;21854;-60
2022/07/13 09:00:45;;;;;;;1.10;0.40;;;;;;;32.17;22.86;100297.35;117277;1184;21854;-64
2022/07/13 09:03:13;;;;;;;2.00;0.60;;;;;;;32.09;22.57;100289.48;117039;1183;21852;-64
2022/07/13 09:05:40;;;;;;;11.80;1.10;;;;;;;32.04;22.72;100292.37;117053;1187;23547;-64
2022/07/13 09:08:10;;;;;;;3.40;0.90;;;;;;;31.93;23.04;100288.80;117041;1184;23605;-60
2022/07/13 09:10:57;;;;;;;2.40;0.40;;;;;;;32.02;22.86;100286.38;117215;1186;21889;-61
2022/07/13 09:13:45;;;;;;;145.50;13.30;;;;;;;32.16;22.50;100285.88;117292;1185;21845;-61
2022/07/13 09:16:19;;;;;;;9.00;0.90;;;;;;;32.33;22.67;100287.16;117231;1186;23503;-65
2022/07/13 09:18:46;;;;;;;5.10;0.80;;;;;;;32.51;22.83;100279.44;117075;1187;21856;-61
2022/07/13 09:21:14;;;;;;;4.50;0.80;;;;;;;32.62;22.21;100277.03;116954;1186;23453;-64
2022/07/13 09:23:43;;;;;;;4.50;0.60;;;;;;;32.71;22.06;100271.02;117309;1184;22096;-60
2022/07/13 09:26:11;;;;;;;13.50;2.20;;;;;;;32.89;21.94;100272.20;117071;1185;23576;-61
2022/07/13 09:28:45;;;;;;;3.10;0.60;;;;;;;33.05;21.83;100275.20;116980;1184;23457;-59
2022/07/13 09:31:13;;;;;;;3.40;1.60;;;;;;;33.09;21.76;100282.05;117249;1186;21877;-63
2022/07/13 09:33:42;;;;;;;6.00;0.80;;;;;;;33.08;21.84;100283.23;117068;1187;23559;-59
2022/07/13 09:36:17;;;;;;;3.20;0.70;;;;;;;32.99;21.95;100277.33;117258;1185;21847;-66
2022/07/13 09:38:45;;;;;;;1.10;0.40;;;;;;;32.87;21.81;100277.14;117097;1185;22932;-64
2022/07/13 09:41:18;;;;;;;3.40;0.50;;;;;;;32.84;21.86;100264.89;117210;1182;24176;-59
2022/07/13 09:46:58;;;;;;;5.00;1.00;;;;;;;33.18;21.43;100255.60;117189;1182;24017;-60
2022/07/13 09:49:42;;;;;;;17.30;1.50;;;;;;;33.41;21.34;100260.19;117088;1186;21845;-60
2022/07/13 09:52:13;;;;;;;4.10;0.60;;;;;;;33.42;21.42;100262.92;117263;1184;23921;-59
2022/07/13 09:54:42;;;;;;;2.80;0.80;;;;;;;33.47;21.38;100255.19;117051;1186;21858;-60
2022/07/13 09:57:12;;;;;;;7.40;1.30;;;;;;;33.71;21.49;100258.86;117163;1186;23267;-60
2022/07/13 09:59:43;;;;;;;;;;;;;;;33.77;21.04;100257.00;117103;1185;23625;-64
2022/07/13 10:02:11;;;;;;;1.90;0.70;;;;;;;33.64;21.02;100257.10;117208;1186;22172;-60
2022/07/13 10:04:39;;;;;;;1.80;0.80;;;;;;;33.57;21.19;100250.41;117172;1186;21875;-60
2022/07/13 10:07:16;;;;;;;1.30;0.40;;;;;;;33.63;21.17;100250.83;117154;1186;23453;-63
2022/07/13 10:09:43;;;;;;;1.10;0.40;;;;;;;33.69;21.17;100246.27;117271;1186;21849;-61
2022/07/13 10:12:11;;;;;;;2.10;0.70;;;;;;;33.68;20.52;100240.38;117187;1186;22651;-61
2022/07/13 10:14:39;;;;;;;6.40;0.90;;;;;;;33.80;20.69;100240.93;117158;1186;21863;-64
2022/07/13 10:17:11;;;;;;;1.20;0.50;;;;;;;33.97;20.23;100240.86;117052;1186;21845;-64
2022/07/13 10:20:08;;;;;;;3.20;1.00;;;;;;;33.89;19.92;100236.47;117174;1186;23554;-59
2022/07/13 10:22:48;;;;;;;5.60;1.60;;;;;;;33.92;20.42;100238.77;116950;1187;23617;-60
2022/07/13 10:25:16;;;;;;;7.90;1.00;;;;;;;34.14;20.38;100230.20;116844;1185;21905;-64
2022/07/13 10:27:44;;;;;;;20.40;2.40;;;;;;;34.27;20.21;100224.55;117166;1187;23651;-59
2022/07/13 10:30:22;;;;;;;8.30;1.40;;;;;;;34.60;20.26;100225.73;116915;1186;21888;-60
2022/07/13 10:32:50;;;;;;;2.10;0.70;;;;;;;34.95;19.38;100225.77;116957;1187;21916;-60
2022/07/13 10:35:20;;;;;;;18.70;2.10;;;;;;;34.96;19.45;100227.60;117087;1183;24158;-61
2022/07/13 10:37:56;;;;;;;3.40;0.60;;;;;;;34.64;19.55;100223.16;116903;1186;22187;-62
2022/07/13 10:40:28;;;;;;;11.70;1.90;;;;;;;34.31;19.83;100222.77;117054;1187;21897;-61
2022/07/13 10:43:00;;;;;;;11.40;1.20;;;;;;;34.12;19.57;100218.34;117062;1188;21887;-60
2022/07/13 10:48:02;;;;;;;8.50;0.90;;;;;;;33.77;19.81;100221.80;117172;1186;21873;-62
2022/07/13 10:50:36;;;;;;;16.50;1.80;;;;;;;33.51;19.61;100223.02;117289;1185;21870;-60
2022/07/13 10:53:07;;;;;;;4.10;0.80;;;;;;;33.05;19.64;100221.33;117188;1185;22013;-63
2022/07/13 10:55:47;;;;;;;7.90;1.10;;;;;;;32.64;20.09;100221.42;117060;1185;23455;-62
2022/07/13 10:58:31;;;;;;;3.10;0.60;;;;;;;32.41;20.14;100220.14;117059;1186;23004;-63
2022/07/13 11:01:00;;;;;;;2.90;0.70;;;;;;;32.32;20.59;100217.40;117081;1181;21860;-63
2022/07/13 11:03:44;;;;;;;7.70;0.70;;;;;;;32.36;20.28;100224.32;117056;1182;23654;-61
2022/07/13 11:06:13;;;;;;;5.80;0.90;;;;;;;32.34;20.23;100223.89;116932;1187;23486;-63
2022/07/13 11:08:40;;;;;;;4.40;0.50;;;;;;;32.29;20.36;100217.31;117071;1188;22047;-63
2022/07/13 11:11:15;;;;;;;3.80;0.70;;;;;;;32.29;20.45;100209.04;117128;1186;22960;-63
2022/07/13 11:13:46;;;;;;;55.00;5.50;;;;;;;32.33;20.38;100200.27;116950;1186;23718;-64
2022/07/13 11:16:14;;;;;;;4.90;0.60;;;;;;;32.26;20.20;100202.94;117293;1182;23568;-64
2022/07/13 11:18:42;;;;;;;6.50;0.60;;;;;;;32.14;20.45;100204.09;117209;1185;22621;-62
2022/07/13 11:21:12;;;;;;;5.80;0.50;;;;;;;32.13;20.71;100200.69;117033;1186;21867;-60
2022/07/13 11:26:33;;;;;;;4.30;0.70;;;;;;;32.34;20.68;100201.42;117124;1186;21849;-61
2022/07/13 11:29:22;;;;;;;3.30;0.80;;;;;;;32.43;20.65;100201.02;117139;1186;23627;-63
2022/07/13 11:31:57;;;;;;;3.00;0.60;;;;;;;32.49;20.83;100206.30;117312;1180;22922;-62
2022/07/13 11:34:24;;;;;;;4.70;0.90;;;;;;;32.48;20.61;100205.73;117192;1186;21851;-64
2022/07/13 11:36:53;;;;;;;3.60;0.70;;;;;;;32.45;20.67;100210.45;117119;1183;22511;-63